KGYI

North Texas Regional / Perrin Field Airport

Sherman/Denison, Texas, USA
METAR KGYI 220215Z AUTO 06003KT 10SM CLR 24/19 A2998 RMK AO2 T02410191
Observed Flight Rules
May-22 @ 02:15 UTC (24 minutes ago) Visual Flight Rules
Wind Visibility Clouds
60° at 3 knots 10 miles
  • Clear skies
Temperatures Readings
Current 24°C / 75°F
Dewpoint 19°C / 66°F
Humidity 74%
Altimeter 29.98" Hg
Pressure 1015 hPa
Elevation 228
METAR KGYI 220215Z AUTO 06003KT 10SM CLR 24/19 A2998 RMK AO2 T02410191
Observed Flight Rules
May-22 @ 02:15 UTC
(24 minutes ago)
VFR
Wind Visibility
60° at 3 knots 10 miles
Clouds
  • Clear skies
Temperature Dewpoint
24°C / 75°F 19°C / 66°F
Humidity Altimeter Pressure
74% 29.98" Hg 1015 hPa